This is the latest recevied weather packets stored in our database for station/object PI1GDA-1. If no packets are shown the sender has not sent any weather packets the latest 1 day(s).
| Time | Temp. | Humidity | Pressure | Rain* | Wind** | Luminosity | Snow |
|---|---|---|---|---|---|---|---|
| 1778060848 | 15° C | 66% | 1009.9 hPa | 0 mm | - | - | - |
| 1778060248 | 15.56° C | 64% | 1009.8 hPa | 0 mm | - | - | - |
| 1778059647 | 15.56° C | 66% | 1009.8 hPa | 0 mm | - | - | - |
| 1778057842 | 14.44° C | 72% | 1009.7 hPa | 0 mm | - | - | - |
| 1778056640 | 13.33° C | 78% | 1009.6 hPa | 0 mm | - | - | - |
| 1778056039 | 13.33° C | 79% | 1009.5 hPa | 0 mm | - | - | - |
| 1778054835 | 12.78° C | 80% | 1009.5 hPa | 0 mm | - | - | - |
| 1778054234 | 12.78° C | 80% | 1009.4 hPa | 0 mm | - | - | - |
| 1778052431 | 11.67° C | 83% | 1009.5 hPa | 0 mm | - | - | - |
| 1778051830 | 11.11° C | 83% | 1009.5 hPa | 0 mm | - | - | - |
| 1778051229 | 11.11° C | 83% | 1009.4 hPa | 0 mm | - | - | - |
| 1778050027 | 11.11° C | 84% | 1009.2 hPa | 0 mm | - | - | - |
| 1778049426 | 10.56° C | 84% | 1009.2 hPa | 0 mm | - | - | - |
| 1778048825 | 10.56° C | 85% | 1009 hPa | 0 mm | - | - | - |
| 1778048224 | 10.56° C | 85% | 1009.1 hPa | 0 mm | - | - | - |
| 1778047022 | 10.56° C | 86% | 1009.1 hPa | 0 mm | - | - | - |
| 1778046421 | 10.56° C | 86% | 1009 hPa | 0 mm | - | - | - |
| 1778045819 | 10.56° C | 87% | 1009 hPa | 0 mm | - | - | - |
| 1778045218 | 10° C | 87% | 1008.9 hPa | 0 mm | - | - | - |
| 1778044617 | 10° C | 87% | 1008.9 hPa | 0 mm | - | - | - |
| 1778043415 | 10° C | 87% | 1009 hPa | 0 mm | - | - | - |
| 1778042814 | 10° C | 87% | 1009.1 hPa | 0 mm | - | - | - |
| 1778042213 | 10° C | 87% | 1009.1 hPa | 0 mm | - | - | - |
| 1778041010 | 10° C | 86% | 1009.2 hPa | 0 mm | - | - | - |
| 1778040409 | 10° C | 86% | 1009.2 hPa | 0 mm | - | - | - |
* Rain latest hour (hover to see other rain measurements)
** Current wind speed in m/s (hover to see current wind gust speed)